• Join FlightAware (Why Join?)
  • Login
  • US Flag 
11:32PM EDT


 

Airport Tracker/Info


-or-


 

Live Flight TrackerFlight Track Log ✈ PE206 ✈ 06-May-2012 ✈ YNBR / NAA - YSSY / SYD

Flight Track Log - Related Links

Times and Time Zones

All times are in EDT time to prevent confusion due to time zone crossing. See the PE206 flight status page for this flight to view local times or setup timezone preferences in your user account.

Time Position Orientation Groundspeed Altitude Reporting Facility
EDT Latitude Longitude Course Direction KTS MPH feet Rate Location/Type
10:48PM -30.3907 149.8747 152° Southeast 17,000  Level Aus ATC (Calculated)
10:50PM -30.4676 149.9212 151° Southeast 198 228 8,000 -2,460 Descending Aus ATC (RADAR)
10:51PM -30.5132 149.9500 153° Southeast 186 214 9,800 1,560 Climbing Aus ATC (RADAR)
10:51PM -30.5459 149.9697 150° Southeast 196 226 10,600 1,260 Climbing Aus ATC (RADAR)
10:52PM -30.5960 150.0035 150° Southeast 194 223 12,100 1,260 Climbing Aus ATC (RADAR)
10:53PM -30.6228 150.0217 153° Southeast 190 219 12,700 1,200 Climbing Aus ATC (RADAR)
10:53PM -30.6506 150.0378 153° Southeast 189 217 13,500 960 Climbing Aus ATC (RADAR)
10:55PM -30.7125 150.0743 148° Southeast 189 217 14,600 780 Climbing Aus ATC (RADAR)
10:56PM -30.7604 150.1096 149° Southeast 207 238 15,400 840 Climbing Aus ATC (RADAR)
10:57PM -30.7992 150.1362 155° Southeast 209 241 16,100 780 Climbing Aus ATC (RADAR)
10:57PM -30.8292 150.1529 155° Southeast 204 235 16,500 660 Climbing Aus ATC (RADAR)
10:58PM -30.8700 150.1746 152° Southeast 211 243 17,000 360 Climbing Aus ATC (RADAR)
10:59PM -30.9253 150.2087 152° Southeast 225 259 17,200 60 Climbing Aus ATC (RADAR)
11:00PM -30.9906 150.2500 152° Southeast 244 281 17,200  Level Aus ATC (RADAR)
11:01PM -31.0524 150.2888 152° Southeast 251 289 17,200 -60 Level Aus ATC (RADAR)
11:02PM -31.1046 150.3206 153° Southeast 251 289 17,100 -120 Descending Aus ATC (RADAR)
11:02PM -31.1410 150.3419 152° Southeast 248 285 17,100 60 Level Aus ATC (RADAR)
11:03PM -31.1933 150.3743 151° Southeast 251 289 17,200  Climbing Aus ATC (RADAR)
11:05PM -31.2866 150.4340 150° Southeast 254 292 17,100 -60 Descending Aus ATC (RADAR)
11:05PM -31.3172 150.4548 152° Southeast 253 291 17,100  Level Aus ATC (RADAR)
11:06PM -31.3795 150.4942 150° Southeast 251 289 17,100  Level Aus ATC (RADAR)
11:07PM -31.4153 150.5183 152° Southeast 251 289 17,100  Level Aus ATC (RADAR)
11:07PM -31.4514 150.5409 151° Southeast 248 285 17,100  Level Aus ATC (RADAR)
11:08PM -31.5034 150.5741 152° Southeast 248 285 17,100  Level Aus ATC (RADAR)
11:09PM -31.5662 150.6134 154° Southeast 251 289 17,100  Level Aus ATC (RADAR)
11:10PM -31.6354 150.6531 156° South 253 291 17,100  Level Aus ATC (RADAR)
11:11PM -31.6997 150.6864 155° Southeast 252 290 17,100  Level Aus ATC (RADAR)
11:12PM -31.7420 150.7099 156° South 250 288 17,100  Level Aus ATC (RADAR)
11:13PM -31.7800 150.7303 157° South 255 293 17,100  Level Aus ATC (RADAR)
11:13PM -31.8340 150.7577 156° South 255 293 17,100  Level Aus ATC (RADAR)
11:14PM -31.8930 150.7885 156° South 250 288 17,100  Level Aus ATC (RADAR)
11:15PM -31.9701 150.8286 176° South 260 299 17,100  Level Aus ATC (RADAR)
11:16PM -32.0377 150.8346 173° South 247 284 17,100  Level Aus ATC (RADAR)
11:17PM -32.0879 150.8421 171° South 242 278 17,200  Climbing Aus ATC (RADAR)
11:18PM -32.1220 150.8483 171° South 248 285 17,100 -120 Descending Aus ATC (RADAR)
11:18PM -32.1619 150.8555 174° South 251 289 17,100  Level Aus ATC (RADAR)
11:19PM -32.2016 150.8607 172° South 247 284 17,100  Level Aus ATC (RADAR)
11:19PM -32.2413 150.8672 174° South 248 285 17,100 -60 Level Aus ATC (RADAR)
11:21PM -32.3202 150.8777 172° South 241 277 17,000 -60 Descending Aus ATC (RADAR)
11:22PM -32.3879 150.8885 172° South 243 280 17,000  Level Aus ATC (RADAR)
11:22PM -32.4333 150.8965 171° South 247 284 17,100 60 Climbing Aus ATC (RADAR)
11:23PM -32.4733 150.9037 173° South 249 287 17,100  Level Aus ATC (RADAR)
11:23PM -32.5126 150.9092 170° South 246 283 17,100  Level Aus ATC (RADAR)
11:24PM -32.5525 150.9174 172° South 249 287 17,100 -120 Level Aus ATC (RADAR)
11:25PM -32.5974 150.9250 169° South 245 282 17,000  Descending Aus ATC (RADAR)
11:26PM -32.6651 150.9405 171° South 248 285 17,100  Climbing Aus ATC (RADAR)
11:27PM -32.7328 150.9533 171° South 248 285 17,000  Descending Aus ATC (RADAR)
11:27PM -32.7778 150.9616 170° South 246 283 17,100  Climbing Aus ATC (RADAR)
11:28PM -32.8171 150.9696 169° South 246 283 17,000 -120 Descending Aus ATC (RADAR)
11:29PM -32.8568 150.9785 172° South 249 287 17,000  Level Aus ATC (RADAR)
11:29PM -32.8955 150.9850 172° South 243 280 17,000  Level Aus ATC (RADAR)
11:30PM -32.9348 150.9917 172° South 246 283 17,000  Level Aus ATC (RADAR)
11:31PM -33.0128 151.0052 172° South 243 280 17,000  Level Aus ATC (RADAR)
11:32PM -33.0797 151.0168 172° South 241 277 17,000  Level Aus ATC (RADAR)
11:33PM -33.1294 151.0249 171° South 238 274 17,000  Level Aus ATC (RADAR)
11:33PM -33.1674 151.0323 172° South 239 275 17,000  Level Aus ATC (RADAR)
11:34PM -33.2182 151.0412 174° South 243 280 17,000 -1,080 Level Aus ATC (RADAR)
11:35PM -33.2906 151.0501 172° South 268 308 15,200 -1,800 Descending Aus ATC (RADAR)
11:36PM -33.3570 151.0616 173° South 287 330 13,800 -1,680 Descending Aus ATC (RADAR)
11:37PM -33.4427 151.0737 171° South 286 329 12,000 -1,740 Descending Aus ATC (RADAR)
11:38PM -33.5017 151.0854 169° South 287 330 10,700 -1,740 Descending Aus ATC (RADAR)
11:38PM -33.5474 151.0960 170° South 286 329 9,700 -1,680 Descending Aus ATC (RADAR)
11:39PM -33.6029 151.1082 168° South 263 303 8,500 -1,500 Descending Aus ATC (RADAR)
11:40PM -33.6713 151.1252 170° South 274 315 7,300 -720 Descending Aus ATC (RADAR)
11:41PM -33.7553 151.1437 171° South 260 299 7,000 -180 Descending Aus ATC (RADAR)
11:42PM -33.8313 151.1577 183° South 253 291 7,000 -300 Level Aus ATC (RADAR)
11:43PM -33.8805 151.1544 189° South 262 302 6,500 -600 Descending Aus ATC (RADAR)
11:43PM -33.9220 151.1462 187° South 258 297 6,300 -480 Descending Aus ATC (RADAR)
11:44PM -33.9638 151.1403 186° South 258 297 6,000 -300 Descending Aus ATC (RADAR)
11:45PM -34.0039 151.1353 186° South 249 287 6,000  Level Aus ATC (RADAR)
11:45PM -34.0433 151.1302 187° South 244 281 6,000 -660 Level Aus ATC (RADAR)
11:46PM -34.0991 151.1221 181° South 240 276 5,100 -1,260 Descending Aus ATC (RADAR)
11:47PM -34.1637 151.1214 117° Southeast 239 275 3,800 -1,200 Descending Aus ATC (RADAR)
11:48PM -34.1843 151.1710 60° Northeast 219 252 3,100 -780 Descending Aus ATC (RADAR)
11:48PM -34.1678 151.2056 10° North 216 249 2,800 -480 Descending Aus ATC (RADAR)
11:49PM -34.1364 151.2125 North 193 222 2,600 -480 Descending Aus ATC (RADAR)
11:49PM -34.1056 151.2175 348° North 190 219 2,300 -480 Descending Aus ATC (RADAR)
11:50PM -34.0771 151.2100 348° North 175 201 2,100 -540 Descending Aus ATC (RADAR)
11:51PM -34.0267 151.1967 348° North 137 158 1,300 -660 Descending Aus ATC (RADAR)
11:52PM -33.9928 151.1880 348° North 136 157 700 -720 Descending Aus ATC (RADAR)
11:53PM -33.9658 151.1811 348° North 124 143 100 -840 Descending Aus ATC (RADAR)